sensor_id;sensor_type;location;lat;lon;timestamp;temperature;humidity
17399;DHT22;8817;48.170;8.592;2022-12-07T00:01:27;8.30;55.30
17399;DHT22;8817;48.170;8.592;2022-12-07T00:03:56;8.30;55.20
17399;DHT22;8817;48.170;8.592;2022-12-07T00:06:29;8.30;55.20
17399;DHT22;8817;48.170;8.592;2022-12-07T00:08:56;8.30;55.20
17399;DHT22;8817;48.170;8.592;2022-12-07T00:11:23;8.30;55.20
17399;DHT22;8817;48.170;8.592;2022-12-07T00:13:54;8.30;55.30
17399;DHT22;8817;48.170;8.592;2022-12-07T00:16:23;8.30;55.90
17399;DHT22;8817;48.170;8.592;2022-12-07T00:18:50;8.30;55.40
17399;DHT22;8817;48.170;8.592;2022-12-07T00:21:19;8.30;55.30
17399;DHT22;8817;48.170;8.592;2022-12-07T00:23:47;8.30;55.30
17399;DHT22;8817;48.170;8.592;2022-12-07T00:26:16;8.30;55.30
17399;DHT22;8817;48.170;8.592;2022-12-07T00:28:45;8.30;55.30
17399;DHT22;8817;48.170;8.592;2022-12-07T00:31:15;8.30;55.30
17399;DHT22;8817;48.170;8.592;2022-12-07T00:33:42;8.30;55.30
17399;DHT22;8817;48.170;8.592;2022-12-07T00:36:11;8.40;55.30
17399;DHT22;8817;48.170;8.592;2022-12-07T00:38:39;8.30;55.30
17399;DHT22;8817;48.170;8.592;2022-12-07T00:41:09;8.30;55.30
17399;DHT22;8817;48.170;8.592;2022-12-07T00:43:37;8.30;55.30
17399;DHT22;8817;48.170;8.592;2022-12-07T00:46:04;8.30;55.30
17399;DHT22;8817;48.170;8.592;2022-12-07T00:48:33;8.30;55.30
17399;DHT22;8817;48.170;8.592;2022-12-07T00:51:00;8.30;55.30
17399;DHT22;8817;48.170;8.592;2022-12-07T00:53:27;8.30;55.30
17399;DHT22;8817;48.170;8.592;2022-12-07T00:55:55;8.30;55.30
17399;DHT22;8817;48.170;8.592;2022-12-07T00:58:22;8.30;55.30
17399;DHT22;8817;48.170;8.592;2022-12-07T01:00:50;8.30;55.30
17399;DHT22;8817;48.170;8.592;2022-12-07T01:03:17;8.30;55.30
17399;DHT22;8817;48.170;8.592;2022-12-07T01:05:52;8.40;55.40
17399;DHT22;8817;48.170;8.592;2022-12-07T01:08:20;8.30;55.30
17399;DHT22;8817;48.170;8.592;2022-12-07T01:10:48;8.30;55.30
17399;DHT22;8817;48.170;8.592;2022-12-07T01:13:15;8.30;55.30
17399;DHT22;8817;48.170;8.592;2022-12-07T01:15:42;8.30;55.30
17399;DHT22;8817;48.170;8.592;2022-12-07T01:18:10;8.30;55.40
17399;DHT22;8817;48.170;8.592;2022-12-07T01:20:37;8.40;55.40
17399;DHT22;8817;48.170;8.592;2022-12-07T01:23:05;8.40;55.40
17399;DHT22;8817;48.170;8.592;2022-12-07T01:25:32;8.40;55.40
17399;DHT22;8817;48.170;8.592;2022-12-07T01:27:59;8.40;55.40
17399;DHT22;8817;48.170;8.592;2022-12-07T01:30:26;8.40;55.40
17399;DHT22;8817;48.170;8.592;2022-12-07T01:32:53;8.40;55.40
17399;DHT22;8817;48.170;8.592;2022-12-07T01:35:21;8.40;55.30
17399;DHT22;8817;48.170;8.592;2022-12-07T01:37:48;8.40;55.30
17399;DHT22;8817;48.170;8.592;2022-12-07T01:40:16;8.40;55.30
17399;DHT22;8817;48.170;8.592;2022-12-07T01:42:43;8.40;55.30
17399;DHT22;8817;48.170;8.592;2022-12-07T01:45:43;8.40;55.40
17399;DHT22;8817;48.170;8.592;2022-12-07T01:48:12;8.40;55.40
17399;DHT22;8817;48.170;8.592;2022-12-07T01:50:40;8.40;55.40
17399;DHT22;8817;48.170;8.592;2022-12-07T01:53:09;8.40;55.40
17399;DHT22;8817;48.170;8.592;2022-12-07T01:55:41;8.40;55.40
17399;DHT22;8817;48.170;8.592;2022-12-07T01:58:10;8.40;55.40
17399;DHT22;8817;48.170;8.592;2022-12-07T02:00:38;8.40;55.40
17399;DHT22;8817;48.170;8.592;2022-12-07T02:03:08;8.40;55.40
17399;DHT22;8817;48.170;8.592;2022-12-07T02:05:38;8.40;55.30
17399;DHT22;8817;48.170;8.592;2022-12-07T02:08:07;8.40;55.30
17399;DHT22;8817;48.170;8.592;2022-12-07T02:10:35;8.50;55.40
17399;DHT22;8817;48.170;8.592;2022-12-07T02:13:06;8.40;55.30
17399;DHT22;8817;48.170;8.592;2022-12-07T02:15:54;8.40;55.40
17399;DHT22;8817;48.170;8.592;2022-12-07T02:18:32;8.40;55.40
17399;DHT22;8817;48.170;8.592;2022-12-07T02:21:07;8.40;55.40
17399;DHT22;8817;48.170;8.592;2022-12-07T02:23:45;8.50;55.40
17399;DHT22;8817;48.170;8.592;2022-12-07T02:26:45;8.40;55.40
17399;DHT22;8817;48.170;8.592;2022-12-07T02:29:22;8.40;55.30
17399;DHT22;8817;48.170;8.592;2022-12-07T02:31:59;8.40;55.30
17399;DHT22;8817;48.170;8.592;2022-12-07T02:34:34;8.30;55.20
17399;DHT22;8817;48.170;8.592;2022-12-07T02:37:09;8.40;55.30
17399;DHT22;8817;48.170;8.592;2022-12-07T02:39:41;8.30;55.30
17399;DHT22;8817;48.170;8.592;2022-12-07T02:42:14;8.30;55.30
17399;DHT22;8817;48.170;8.592;2022-12-07T02:44:44;8.40;55.30
17399;DHT22;8817;48.170;8.592;2022-12-07T02:47:15;8.30;55.30
17399;DHT22;8817;48.170;8.592;2022-12-07T02:49:44;8.30;55.30
17399;DHT22;8817;48.170;8.592;2022-12-07T02:52:11;8.30;55.90
17399;DHT22;8817;48.170;8.592;2022-12-07T02:54:38;8.30;55.30
17399;DHT22;8817;48.170;8.592;2022-12-07T02:57:17;8.30;55.30
17399;DHT22;8817;48.170;8.592;2022-12-07T03:00:00;8.30;55.30
17399;DHT22;8817;48.170;8.592;2022-12-07T03:02:35;8.30;55.20
17399;DHT22;8817;48.170;8.592;2022-12-07T03:05:19;8.20;55.10
17399;DHT22;8817;48.170;8.592;2022-12-07T03:07:53;8.20;55.10
17399;DHT22;8817;48.170;8.592;2022-12-07T03:10:25;8.20;55.10
17399;DHT22;8817;48.170;8.592;2022-12-07T03:13:02;8.20;55.10
17399;DHT22;8817;48.170;8.592;2022-12-07T03:15:38;8.10;55.10
17399;DHT22;8817;48.170;8.592;2022-12-07T03:18:07;8.10;55.10
17399;DHT22;8817;48.170;8.592;2022-12-07T03:20:37;8.10;55.10
17399;DHT22;8817;48.170;8.592;2022-12-07T03:23:05;8.10;55.10
17399;DHT22;8817;48.170;8.592;2022-12-07T03:25:35;8.00;55.10
17399;DHT22;8817;48.170;8.592;2022-12-07T03:28:06;8.00;55.20
17399;DHT22;8817;48.170;8.592;2022-12-07T03:30:37;8.00;55.20
17399;DHT22;8817;48.170;8.592;2022-12-07T03:33:08;8.00;55.20
17399;DHT22;8817;48.170;8.592;2022-12-07T03:35:39;8.00;55.20
17399;DHT22;8817;48.170;8.592;2022-12-07T03:38:13;8.00;55.20
17399;DHT22;8817;48.170;8.592;2022-12-07T03:40:44;8.00;55.20
17399;DHT22;8817;48.170;8.592;2022-12-07T03:43:16;8.00;55.20
17399;DHT22;8817;48.170;8.592;2022-12-07T03:45:56;8.00;55.20
17399;DHT22;8817;48.170;8.592;2022-12-07T03:48:28;8.00;55.20
17399;DHT22;8817;48.170;8.592;2022-12-07T03:51:02;8.00;55.20
17399;DHT22;8817;48.170;8.592;2022-12-07T03:53:36;8.00;55.20
17399;DHT22;8817;48.170;8.592;2022-12-07T03:56:07;7.90;55.10
17399;DHT22;8817;48.170;8.592;2022-12-07T03:58:35;7.90;55.20
17399;DHT22;8817;48.170;8.592;2022-12-07T04:01:04;7.90;55.10
17399;DHT22;8817;48.170;8.592;2022-12-07T04:03:31;7.90;55.20
17399;DHT22;8817;48.170;8.592;2022-12-07T04:05:58;7.90;55.20
17399;DHT22;8817;48.170;8.592;2022-12-07T04:08:25;7.90;55.20
17399;DHT22;8817;48.170;8.592;2022-12-07T04:10:52;7.90;55.80
17399;DHT22;8817;48.170;8.592;2022-12-07T04:13:19;7.90;55.30
17399;DHT22;8817;48.170;8.592;2022-12-07T04:15:46;7.90;55.40
17399;DHT22;8817;48.170;8.592;2022-12-07T04:18:14;7.90;55.30
17399;DHT22;8817;48.170;8.592;2022-12-07T04:20:41;7.90;55.30
17399;DHT22;8817;48.170;8.592;2022-12-07T04:23:08;7.90;55.30
17399;DHT22;8817;48.170;8.592;2022-12-07T04:25:35;8.00;55.30
17399;DHT22;8817;48.170;8.592;2022-12-07T04:28:02;7.90;55.20
17399;DHT22;8817;48.170;8.592;2022-12-07T04:30:28;7.90;55.20
17399;DHT22;8817;48.170;8.592;2022-12-07T04:32:55;7.90;55.20
17399;DHT22;8817;48.170;8.592;2022-12-07T04:35:24;7.90;55.20
17399;DHT22;8817;48.170;8.592;2022-12-07T04:37:50;7.90;55.20
17399;DHT22;8817;48.170;8.592;2022-12-07T04:40:17;7.90;55.20
17399;DHT22;8817;48.170;8.592;2022-12-07T04:42:44;7.90;55.20
17399;DHT22;8817;48.170;8.592;2022-12-07T04:45:11;7.90;55.20
17399;DHT22;8817;48.170;8.592;2022-12-07T04:47:38;7.90;55.20
17399;DHT22;8817;48.170;8.592;2022-12-07T04:50:06;7.90;55.20
17399;DHT22;8817;48.170;8.592;2022-12-07T04:52:34;7.90;55.10
17399;DHT22;8817;48.170;8.592;2022-12-07T04:55:01;7.90;55.10
17399;DHT22;8817;48.170;8.592;2022-12-07T04:57:28;7.80;55.10
17399;DHT22;8817;48.170;8.592;2022-12-07T04:59:55;7.80;55.10
17399;DHT22;8817;48.170;8.592;2022-12-07T05:02:22;7.80;55.10
17399;DHT22;8817;48.170;8.592;2022-12-07T05:04:48;7.80;55.10
17399;DHT22;8817;48.170;8.592;2022-12-07T05:07:15;7.70;55.10
17399;DHT22;8817;48.170;8.592;2022-12-07T05:09:44;7.80;55.10
17399;DHT22;8817;48.170;8.592;2022-12-07T05:12:10;7.80;55.20
17399;DHT22;8817;48.170;8.592;2022-12-07T05:14:37;7.80;55.20
17399;DHT22;8817;48.170;8.592;2022-12-07T05:17:04;7.80;55.20
17399;DHT22;8817;48.170;8.592;2022-12-07T05:19:31;7.80;55.20
17399;DHT22;8817;48.170;8.592;2022-12-07T05:21:58;7.80;55.20
17399;DHT22;8817;48.170;8.592;2022-12-07T05:24:25;7.80;55.20
17399;DHT22;8817;48.170;8.592;2022-12-07T05:26:53;7.80;55.20
17399;DHT22;8817;48.170;8.592;2022-12-07T05:29:20;7.80;55.20
17399;DHT22;8817;48.170;8.592;2022-12-07T05:31:47;7.80;55.10
17399;DHT22;8817;48.170;8.592;2022-12-07T05:34:14;7.80;55.10
17399;DHT22;8817;48.170;8.592;2022-12-07T05:36:40;7.70;55.10
17399;DHT22;8817;48.170;8.592;2022-12-07T05:39:09;7.80;55.10
17399;DHT22;8817;48.170;8.592;2022-12-07T05:41:36;7.70;55.10
17399;DHT22;8817;48.170;8.592;2022-12-07T05:44:22;7.80;55.10
17399;DHT22;8817;48.170;8.592;2022-12-07T05:46:49;7.70;55.10
17399;DHT22;8817;48.170;8.592;2022-12-07T05:49:16;7.70;55.20
17399;DHT22;8817;48.170;8.592;2022-12-07T05:51:43;7.70;55.20
17399;DHT22;8817;48.170;8.592;2022-12-07T05:54:10;7.70;55.20
17399;DHT22;8817;48.170;8.592;2022-12-07T05:56:37;7.70;55.20
17399;DHT22;8817;48.170;8.592;2022-12-07T05:59:03;7.70;55.20
17399;DHT22;8817;48.170;8.592;2022-12-07T06:01:50;7.70;55.20
17399;DHT22;8817;48.170;8.592;2022-12-07T06:04:17;7.70;55.20
17399;DHT22;8817;48.170;8.592;2022-12-07T06:06:44;7.70;55.20
17399;DHT22;8817;48.170;8.592;2022-12-07T06:09:11;7.70;55.80
17399;DHT22;8817;48.170;8.592;2022-12-07T06:11:39;7.80;55.20
17399;DHT22;8817;48.170;8.592;2022-12-07T06:14:23;7.80;55.80
17399;DHT22;8817;48.170;8.592;2022-12-07T06:16:51;7.80;55.20
17399;DHT22;8817;48.170;8.592;2022-12-07T06:19:18;7.70;55.10
17399;DHT22;8817;48.170;8.592;2022-12-07T06:21:45;7.70;55.10
17399;DHT22;8817;48.170;8.592;2022-12-07T06:24:13;7.80;55.00
17399;DHT22;8817;48.170;8.592;2022-12-07T06:26:40;7.70;55.00
17399;DHT22;8817;48.170;8.592;2022-12-07T06:29:07;7.70;55.00
17399;DHT22;8817;48.170;8.592;2022-12-07T06:31:35;7.70;55.00
17399;DHT22;8817;48.170;8.592;2022-12-07T06:34:06;7.70;55.00
17399;DHT22;8817;48.170;8.592;2022-12-07T06:36:33;7.70;55.00
17399;DHT22;8817;48.170;8.592;2022-12-07T06:39:00;7.70;54.90
17399;DHT22;8817;48.170;8.592;2022-12-07T06:41:27;7.70;54.90
17399;DHT22;8817;48.170;8.592;2022-12-07T06:43:54;7.60;54.90
17399;DHT22;8817;48.170;8.592;2022-12-07T06:46:21;7.60;54.90
17399;DHT22;8817;48.170;8.592;2022-12-07T06:48:48;7.60;54.80
17399;DHT22;8817;48.170;8.592;2022-12-07T06:51:17;7.60;54.80
17399;DHT22;8817;48.170;8.592;2022-12-07T06:53:44;7.50;54.70
17399;DHT22;8817;48.170;8.592;2022-12-07T06:56:11;7.60;54.80
17399;DHT22;8817;48.170;8.592;2022-12-07T06:58:39;7.50;54.80
17399;DHT22;8817;48.170;8.592;2022-12-07T07:01:09;7.50;54.80
17399;DHT22;8817;48.170;8.592;2022-12-07T07:03:36;7.40;54.70
17399;DHT22;8817;48.170;8.592;2022-12-07T07:06:03;7.40;54.70
17399;DHT22;8817;48.170;8.592;2022-12-07T07:08:31;7.40;54.70
17399;DHT22;8817;48.170;8.592;2022-12-07T07:10:58;7.40;54.70
17399;DHT22;8817;48.170;8.592;2022-12-07T07:13:25;7.30;54.60
17399;DHT22;8817;48.170;8.592;2022-12-07T07:15:52;7.30;54.60
17399;DHT22;8817;48.170;8.592;2022-12-07T07:18:19;7.30;54.60
17399;DHT22;8817;48.170;8.592;2022-12-07T07:20:46;7.20;54.60
17399;DHT22;8817;48.170;8.592;2022-12-07T07:23:13;7.20;54.60
17399;DHT22;8817;48.170;8.592;2022-12-07T07:25:41;7.20;54.70
17399;DHT22;8817;48.170;8.592;2022-12-07T07:28:08;7.10;54.60
17399;DHT22;8817;48.170;8.592;2022-12-07T07:30:35;7.10;54.60
17399;DHT22;8817;48.170;8.592;2022-12-07T07:33:03;7.10;54.60
17399;DHT22;8817;48.170;8.592;2022-12-07T07:35:32;7.10;54.70
17399;DHT22;8817;48.170;8.592;2022-12-07T07:37:59;7.10;54.70
17399;DHT22;8817;48.170;8.592;2022-12-07T07:40:27;7.00;54.60
17399;DHT22;8817;48.170;8.592;2022-12-07T07:42:56;7.00;54.70
17399;DHT22;8817;48.170;8.592;2022-12-07T07:45:24;7.00;54.70
17399;DHT22;8817;48.170;8.592;2022-12-07T07:47:52;7.00;54.70
17399;DHT22;8817;48.170;8.592;2022-12-07T07:50:19;7.00;54.60
17399;DHT22;8817;48.170;8.592;2022-12-07T07:52:46;7.00;54.70
17399;DHT22;8817;48.170;8.592;2022-12-07T07:55:13;7.00;54.70
17399;DHT22;8817;48.170;8.592;2022-12-07T07:57:40;7.00;54.70
17399;DHT22;8817;48.170;8.592;2022-12-07T08:00:12;7.00;54.70
17399;DHT22;8817;48.170;8.592;2022-12-07T08:02:39;7.00;54.70
17399;DHT22;8817;48.170;8.592;2022-12-07T08:05:07;7.00;54.80
17399;DHT22;8817;48.170;8.592;2022-12-07T08:07:33;7.00;54.80
17399;DHT22;8817;48.170;8.592;2022-12-07T08:10:00;6.90;54.80
17399;DHT22;8817;48.170;8.592;2022-12-07T08:12:27;7.00;54.80
17399;DHT22;8817;48.170;8.592;2022-12-07T08:14:54;7.00;54.80
17399;DHT22;8817;48.170;8.592;2022-12-07T08:17:22;7.00;54.90
17399;DHT22;8817;48.170;8.592;2022-12-07T08:19:49;7.00;54.90
17399;DHT22;8817;48.170;8.592;2022-12-07T08:22:16;6.90;54.90
17399;DHT22;8817;48.170;8.592;2022-12-07T08:24:43;7.00;54.90
17399;DHT22;8817;48.170;8.592;2022-12-07T08:27:10;7.00;55.00
17399;DHT22;8817;48.170;8.592;2022-12-07T08:29:38;7.00;55.00
17399;DHT22;8817;48.170;8.592;2022-12-07T08:32:05;7.10;55.00
17399;DHT22;8817;48.170;8.592;2022-12-07T08:34:33;7.10;55.00
17399;DHT22;8817;48.170;8.592;2022-12-07T08:37:00;7.10;55.00
17399;DHT22;8817;48.170;8.592;2022-12-07T08:39:27;7.10;55.10
17399;DHT22;8817;48.170;8.592;2022-12-07T08:41:54;7.10;55.70
17399;DHT22;8817;48.170;8.592;2022-12-07T08:44:21;7.20;55.20
17399;DHT22;8817;48.170;8.592;2022-12-07T08:46:51;7.20;55.20
17399;DHT22;8817;48.170;8.592;2022-12-07T08:49:22;7.20;55.10
17399;DHT22;8817;48.170;8.592;2022-12-07T08:51:51;7.30;55.20
17399;DHT22;8817;48.170;8.592;2022-12-07T08:54:19;7.30;55.20
17399;DHT22;8817;48.170;8.592;2022-12-07T08:56:47;7.30;55.30
17399;DHT22;8817;48.170;8.592;2022-12-07T08:59:17;7.40;55.30
17399;DHT22;8817;48.170;8.592;2022-12-07T09:01:45;7.40;55.20
17399;DHT22;8817;48.170;8.592;2022-12-07T09:04:12;7.40;55.20
17399;DHT22;8817;48.170;8.592;2022-12-07T09:10:05;7.40;55.80
17399;DHT22;8817;48.170;8.592;2022-12-07T09:12:32;7.50;55.30
17399;DHT22;8817;48.170;8.592;2022-12-07T09:14:59;7.50;55.30
17399;DHT22;8817;48.170;8.592;2022-12-07T09:17:27;7.50;55.40
17399;DHT22;8817;48.170;8.592;2022-12-07T09:19:54;7.60;55.40
17399;DHT22;8817;48.170;8.592;2022-12-07T09:22:20;7.70;55.40
17399;DHT22;8817;48.170;8.592;2022-12-07T09:24:47;7.70;55.40
17399;DHT22;8817;48.170;8.592;2022-12-07T09:27:16;7.70;55.40
17399;DHT22;8817;48.170;8.592;2022-12-07T09:29:43;7.80;56.00
17399;DHT22;8817;48.170;8.592;2022-12-07T09:32:10;7.80;55.30
17399;DHT22;8817;48.170;8.592;2022-12-07T09:34:37;7.90;55.40
17399;DHT22;8817;48.170;8.592;2022-12-07T09:37:04;7.90;55.40
17399;DHT22;8817;48.170;8.592;2022-12-07T09:39:31;7.90;55.30
17399;DHT22;8817;48.170;8.592;2022-12-07T09:41:59;7.90;55.30
17399;DHT22;8817;48.170;8.592;2022-12-07T09:44:30;8.00;55.30
17399;DHT22;8817;48.170;8.592;2022-12-07T09:46:57;8.00;55.30
17399;DHT22;8817;48.170;8.592;2022-12-07T09:49:28;8.00;55.20
17399;DHT22;8817;48.170;8.592;2022-12-07T09:52:01;8.10;55.30
17399;DHT22;8817;48.170;8.592;2022-12-07T09:54:29;8.10;55.40
17399;DHT22;8817;48.170;8.592;2022-12-07T09:56:57;8.20;55.40
17399;DHT22;8817;48.170;8.592;2022-12-07T09:59:25;8.20;55.40
17399;DHT22;8817;48.170;8.592;2022-12-07T10:01:54;8.20;55.30
17399;DHT22;8817;48.170;8.592;2022-12-07T10:04:22;8.20;55.30
17399;DHT22;8817;48.170;8.592;2022-12-07T10:06:51;8.30;55.30
17399;DHT22;8817;48.170;8.592;2022-12-07T10:09:19;8.30;55.30
17399;DHT22;8817;48.170;8.592;2022-12-07T10:12:04;8.30;55.30
17399;DHT22;8817;48.170;8.592;2022-12-07T10:14:35;8.30;55.30
17399;DHT22;8817;48.170;8.592;2022-12-07T10:17:28;8.40;55.40
17399;DHT22;8817;48.170;8.592;2022-12-07T10:20:12;8.40;55.40
17399;DHT22;8817;48.170;8.592;2022-12-07T10:22:54;8.50;55.30
17399;DHT22;8817;48.170;8.592;2022-12-07T10:25:25;8.50;55.30
17399;DHT22;8817;48.170;8.592;2022-12-07T10:28:00;8.50;55.30
17399;DHT22;8817;48.170;8.592;2022-12-07T10:30:29;8.50;55.20
17399;DHT22;8817;48.170;8.592;2022-12-07T10:32:59;8.60;55.30
17399;DHT22;8817;48.170;8.592;2022-12-07T10:35:27;8.60;55.30
17399;DHT22;8817;48.170;8.592;2022-12-07T10:37:56;8.60;55.30
17399;DHT22;8817;48.170;8.592;2022-12-07T10:40:28;8.60;55.30
17399;DHT22;8817;48.170;8.592;2022-12-07T10:43:04;8.60;55.30
17399;DHT22;8817;48.170;8.592;2022-12-07T10:45:32;8.70;55.30
17399;DHT22;8817;48.170;8.592;2022-12-07T10:48:06;8.70;55.30
17399;DHT22;8817;48.170;8.592;2022-12-07T10:51:02;8.70;55.30
17399;DHT22;8817;48.170;8.592;2022-12-07T10:53:40;8.70;55.20
17399;DHT22;8817;48.170;8.592;2022-12-07T10:59:24;8.80;55.20
17399;DHT22;8817;48.170;8.592;2022-12-07T11:01:57;8.80;55.20
17399;DHT22;8817;48.170;8.592;2022-12-07T11:04:33;8.80;55.20
17399;DHT22;8817;48.170;8.592;2022-12-07T11:07:09;8.80;55.20
17399;DHT22;8817;48.170;8.592;2022-12-07T11:09:50;8.80;55.20
17399;DHT22;8817;48.170;8.592;2022-12-07T11:12:28;8.90;55.20
17399;DHT22;8817;48.170;8.592;2022-12-07T11:15:02;8.90;55.30
17399;DHT22;8817;48.170;8.592;2022-12-07T11:17:36;8.90;55.30
17399;DHT22;8817;48.170;8.592;2022-12-07T11:20:19;8.90;55.30
17399;DHT22;8817;48.170;8.592;2022-12-07T11:22:55;9.00;55.30
17399;DHT22;8817;48.170;8.592;2022-12-07T11:25:32;9.00;55.30
17399;DHT22;8817;48.170;8.592;2022-12-07T11:28:17;9.00;55.30
17399;DHT22;8817;48.170;8.592;2022-12-07T11:30:51;9.10;55.30
17399;DHT22;8817;48.170;8.592;2022-12-07T11:33:27;9.10;55.30
17399;DHT22;8817;48.170;8.592;2022-12-07T11:36:04;9.10;55.30
17399;DHT22;8817;48.170;8.592;2022-12-07T11:38:41;9.20;55.40
17399;DHT22;8817;48.170;8.592;2022-12-07T11:41:09;9.20;55.40
17399;DHT22;8817;48.170;8.592;2022-12-07T11:43:51;9.20;55.40
17399;DHT22;8817;48.170;8.592;2022-12-07T11:46:20;9.30;55.50
17399;DHT22;8817;48.170;8.592;2022-12-07T11:48:54;9.40;55.50
17399;DHT22;8817;48.170;8.592;2022-12-07T11:51:23;9.40;56.10
17399;DHT22;8817;48.170;8.592;2022-12-07T11:53:55;9.50;55.60
17399;DHT22;8817;48.170;8.592;2022-12-07T11:56:26;9.50;55.60
17399;DHT22;8817;48.170;8.592;2022-12-07T11:58:56;9.60;55.60
17399;DHT22;8817;48.170;8.592;2022-12-07T12:01:38;9.60;55.50
17399;DHT22;8817;48.170;8.592;2022-12-07T12:04:19;9.70;55.60
17399;DHT22;8817;48.170;8.592;2022-12-07T12:06:51;9.70;55.40
17399;DHT22;8817;48.170;8.592;2022-12-07T12:09:22;9.80;55.30
17399;DHT22;8817;48.170;8.592;2022-12-07T12:12:06;9.80;55.40
17399;DHT22;8817;48.170;8.592;2022-12-07T12:14:57;9.90;55.50
17399;DHT22;8817;48.170;8.592;2022-12-07T12:20:23;10.00;55.60
17399;DHT22;8817;48.170;8.592;2022-12-07T12:22:59;10.10;55.70
17399;DHT22;8817;48.170;8.592;2022-12-07T12:25:30;10.10;55.70
17399;DHT22;8817;48.170;8.592;2022-12-07T12:27:59;10.30;55.80
17399;DHT22;8817;48.170;8.592;2022-12-07T12:30:35;10.30;55.80
17399;DHT22;8817;48.170;8.592;2022-12-07T12:33:12;10.40;55.90
17399;DHT22;8817;48.170;8.592;2022-12-07T12:35:41;10.40;55.90
17399;DHT22;8817;48.170;8.592;2022-12-07T12:38:31;10.50;55.90
17399;DHT22;8817;48.170;8.592;2022-12-07T12:40:59;10.60;55.90
17399;DHT22;8817;48.170;8.592;2022-12-07T12:43:51;10.70;55.90
17399;DHT22;8817;48.170;8.592;2022-12-07T12:46:48;10.80;56.00
17399;DHT22;8817;48.170;8.592;2022-12-07T12:49:38;10.80;56.00
17399;DHT22;8817;48.170;8.592;2022-12-07T12:55:15;11.10;56.20
17399;DHT22;8817;48.170;8.592;2022-12-07T12:57:47;11.20;56.20
17399;DHT22;8817;48.170;8.592;2022-12-07T13:00:19;11.30;56.30
17399;DHT22;8817;48.170;8.592;2022-12-07T13:02:50;11.40;56.10
17399;DHT22;8817;48.170;8.592;2022-12-07T13:05:20;11.50;56.00
17399;DHT22;8817;48.170;8.592;2022-12-07T13:07:54;11.60;55.70
17399;DHT22;8817;48.170;8.592;2022-12-07T13:10:44;11.60;55.50
17399;DHT22;8817;48.170;8.592;2022-12-07T13:13:32;11.60;55.30
17399;DHT22;8817;48.170;8.592;2022-12-07T13:16:37;11.60;55.00
17399;DHT22;8817;48.170;8.592;2022-12-07T13:22:33;11.40;54.40
17399;DHT22;8817;48.170;8.592;2022-12-07T13:25:07;11.30;54.20
17399;DHT22;8817;48.170;8.592;2022-12-07T13:27:37;11.20;54.20
17399;DHT22;8817;48.170;8.592;2022-12-07T13:30:14;11.10;54.20
17399;DHT22;8817;48.170;8.592;2022-12-07T13:32:42;11.00;54.20
17399;DHT22;8817;48.170;8.592;2022-12-07T13:35:32;10.90;54.30
17399;DHT22;8817;48.170;8.592;2022-12-07T13:38:02;10.80;54.30
17399;DHT22;8817;48.170;8.592;2022-12-07T13:40:29;10.70;54.30
17399;DHT22;8817;48.170;8.592;2022-12-07T13:43:02;10.70;54.30
17399;DHT22;8817;48.170;8.592;2022-12-07T13:45:30;10.60;54.30
17399;DHT22;8817;48.170;8.592;2022-12-07T13:48:21;10.60;54.40
17399;DHT22;8817;48.170;8.592;2022-12-07T13:50:53;10.50;54.30
17399;DHT22;8817;48.170;8.592;2022-12-07T13:53:21;10.50;54.30
17399;DHT22;8817;48.170;8.592;2022-12-07T13:55:48;10.40;54.20
17399;DHT22;8817;48.170;8.592;2022-12-07T13:58:17;10.30;54.10
17399;DHT22;8817;48.170;8.592;2022-12-07T14:00:44;10.30;54.00
17399;DHT22;8817;48.170;8.592;2022-12-07T14:03:33;10.20;54.00
17399;DHT22;8817;48.170;8.592;2022-12-07T14:06:25;10.20;53.90
17399;DHT22;8817;48.170;8.592;2022-12-07T14:09:16;10.00;53.80
17399;DHT22;8817;48.170;8.592;2022-12-07T14:11:45;10.00;53.90
17399;DHT22;8817;48.170;8.592;2022-12-07T14:14:17;9.90;53.90
17399;DHT22;8817;48.170;8.592;2022-12-07T14:16:59;9.90;54.00
17399;DHT22;8817;48.170;8.592;2022-12-07T14:19:42;9.80;54.10
17399;DHT22;8817;48.170;8.592;2022-12-07T14:22:25;9.70;54.10
17399;DHT22;8817;48.170;8.592;2022-12-07T14:24:59;9.70;54.10
17399;DHT22;8817;48.170;8.592;2022-12-07T14:27:31;9.70;54.10
17399;DHT22;8817;48.170;8.592;2022-12-07T14:30:00;9.60;54.00
17399;DHT22;8817;48.170;8.592;2022-12-07T14:32:29;9.60;54.00
17399;DHT22;8817;48.170;8.592;2022-12-07T14:34:58;9.60;54.00
17399;DHT22;8817;48.170;8.592;2022-12-07T14:37:27;9.50;54.00
17399;DHT22;8817;48.170;8.592;2022-12-07T14:39:54;9.50;54.00
17399;DHT22;8817;48.170;8.592;2022-12-07T14:42:23;9.40;54.10
17399;DHT22;8817;48.170;8.592;2022-12-07T14:44:51;9.40;54.10
17399;DHT22;8817;48.170;8.592;2022-12-07T14:47:19;9.30;54.10
17399;DHT22;8817;48.170;8.592;2022-12-07T14:49:46;9.30;54.00
17399;DHT22;8817;48.170;8.592;2022-12-07T14:52:16;9.30;54.10
17399;DHT22;8817;48.170;8.592;2022-12-07T14:54:43;9.30;54.00
17399;DHT22;8817;48.170;8.592;2022-12-07T14:57:10;9.20;54.00
17399;DHT22;8817;48.170;8.592;2022-12-07T14:59:38;9.20;54.00
17399;DHT22;8817;48.170;8.592;2022-12-07T15:02:05;9.20;54.00
17399;DHT22;8817;48.170;8.592;2022-12-07T15:04:34;9.10;54.00
17399;DHT22;8817;48.170;8.592;2022-12-07T15:07:03;9.10;54.00
17399;DHT22;8817;48.170;8.592;2022-12-07T15:09:30;9.10;54.00
17399;DHT22;8817;48.170;8.592;2022-12-07T15:11:57;9.00;53.90
17399;DHT22;8817;48.170;8.592;2022-12-07T15:14:24;9.00;53.90
17399;DHT22;8817;48.170;8.592;2022-12-07T15:16:51;9.00;53.90
17399;DHT22;8817;48.170;8.592;2022-12-07T15:19:19;9.00;53.90
17399;DHT22;8817;48.170;8.592;2022-12-07T15:21:49;9.00;54.00
17399;DHT22;8817;48.170;8.592;2022-12-07T15:24:16;8.90;54.00
17399;DHT22;8817;48.170;8.592;2022-12-07T15:26:43;8.90;54.00
17399;DHT22;8817;48.170;8.592;2022-12-07T15:29:10;8.90;54.00
17399;DHT22;8817;48.170;8.592;2022-12-07T15:31:40;8.90;54.00
17399;DHT22;8817;48.170;8.592;2022-12-07T15:34:07;8.90;54.00
17399;DHT22;8817;48.170;8.592;2022-12-07T15:36:34;8.90;54.00
17399;DHT22;8817;48.170;8.592;2022-12-07T15:39:03;8.90;54.10
17399;DHT22;8817;48.170;8.592;2022-12-07T15:41:30;8.90;54.00
17399;DHT22;8817;48.170;8.592;2022-12-07T15:43:56;8.80;54.00
17399;DHT22;8817;48.170;8.592;2022-12-07T15:46:41;8.90;54.10
17399;DHT22;8817;48.170;8.592;2022-12-07T15:49:11;8.90;54.10
17399;DHT22;8817;48.170;8.592;2022-12-07T15:51:39;8.90;54.10
17399;DHT22;8817;48.170;8.592;2022-12-07T15:54:11;8.90;54.00
17399;DHT22;8817;48.170;8.592;2022-12-07T15:56:38;8.80;53.90
17399;DHT22;8817;48.170;8.592;2022-12-07T15:59:05;8.90;54.00
17399;DHT22;8817;48.170;8.592;2022-12-07T16:01:32;8.80;54.00
17399;DHT22;8817;48.170;8.592;2022-12-07T16:03:59;8.80;54.00
17399;DHT22;8817;48.170;8.592;2022-12-07T16:06:26;8.80;54.00
17399;DHT22;8817;48.170;8.592;2022-12-07T16:08:53;8.90;54.10
17399;DHT22;8817;48.170;8.592;2022-12-07T16:11:21;8.90;54.10
17399;DHT22;8817;48.170;8.592;2022-12-07T16:13:48;8.90;54.10
17399;DHT22;8817;48.170;8.592;2022-12-07T16:16:17;8.90;54.10
17399;DHT22;8817;48.170;8.592;2022-12-07T16:18:45;8.90;54.10
17399;DHT22;8817;48.170;8.592;2022-12-07T16:21:13;8.90;54.10
17399;DHT22;8817;48.170;8.592;2022-12-07T16:23:40;8.90;54.10
17399;DHT22;8817;48.170;8.592;2022-12-07T16:26:08;8.90;54.10
17399;DHT22;8817;48.170;8.592;2022-12-07T16:28:37;8.90;54.10
17399;DHT22;8817;48.170;8.592;2022-12-07T16:31:06;8.90;54.00
17399;DHT22;8817;48.170;8.592;2022-12-07T16:33:34;8.90;54.00
17399;DHT22;8817;48.170;8.592;2022-12-07T16:36:04;8.90;53.90
17399;DHT22;8817;48.170;8.592;2022-12-07T16:38:31;8.80;53.90